Time,TemperatureF,DewpointF,PressureIn,WindDirection,WindDirectionDegrees,WindSpeedMPH,WindSpeedGustMPH,Humidity,HourlyPrecipIn,Conditions,Clouds,dailyrainin,SoftwareType,DateUTC
2013-09-09 00:04:00,74.4,70.6,29.88,SSE,152,0.0,2.0,88,0.00,,SKC,0.00,VWS V12.07,2013-09-09 05:04:00,
2013-09-09 00:10:00,74.3,70.8,29.88,SSE,158,0.0,2.0,89,0.00,,SKC,0.00,VWS V12.07,2013-09-09 05:10:00,
2013-09-09 00:16:00,74.2,70.8,29.88,SSE,165,1.0,2.0,89,0.00,,SKC,0.00,VWS V12.07,2013-09-09 05:16:00,
2013-09-09 00:22:00,74.1,70.7,29.88,SSE,162,0.0,3.0,89,0.00,,SKC,0.00,VWS V12.07,2013-09-09 05:22:00,
2013-09-09 00:28:00,74.0,70.6,29.88,SE,125,1.0,3.0,89,0.00,,SKC,0.00,VWS V12.07,2013-09-09 05:28:00,
2013-09-09 00:31:00,74.0,70.9,29.88,South,176,1.0,1.0,90,0.00,,SKC,0.00,VWS V12.07,2013-09-09 05:31:00,
2013-09-09 00:37:00,73.9,70.8,29.87,SE,136,1.0,3.0,90,0.00,,SKC,0.00,VWS V12.07,2013-09-09 05:37:00,
2013-09-09 00:43:00,73.9,70.8,29.87,South,180,1.0,3.0,90,0.00,,SKC,0.00,VWS V12.07,2013-09-09 05:43:00,
2013-09-09 00:49:00,73.8,70.7,29.87,ESE,123,1.0,3.0,90,0.00,,SKC,0.00,VWS V12.07,2013-09-09 05:49:00,
2013-09-09 00:55:00,73.7,70.6,29.87,SE,143,1.0,3.0,90,0.00,,SKC,0.00,VWS V12.07,2013-09-09 05:55:00,
2013-09-09 01:01:00,73.6,70.8,29.87,SSE,166,2.0,3.0,91,0.00,,SKC,0.00,VWS V12.07,2013-09-09 06:01:00,
2013-09-09 01:07:00,73.5,70.7,29.87,SSE,147,2.0,3.0,91,0.00,,SKC,0.00,VWS V12.07,2013-09-09 06:07:00,
2013-09-09 01:13:00,73.5,70.7,29.87,SE,143,2.0,3.0,91,0.00,,SKC,0.00,VWS V12.07,2013-09-09 06:13:00,
2013-09-09 01:19:00,73.4,70.6,29.87,SE,134,1.0,3.0,91,0.00,,SKC,0.00,VWS V12.07,2013-09-09 06:19:00,
2013-09-09 01:24:00,73.4,70.6,29.87,SSE,150,1.0,3.0,91,0.00,,SKC,0.00,VWS V12.07,2013-09-09 06:24:00,
2013-09-09 01:32:00,73.3,70.8,29.87,South,170,0.0,0.0,92,0.00,,SKC,0.00,VWS V12.07,2013-09-09 06:32:00,
2013-09-09 01:39:00,73.2,70.7,29.87,SE,145,0.0,2.0,92,0.00,,SKC,0.00,VWS V12.07,2013-09-09 06:39:00,
2013-09-09 01:46:00,73.1,70.6,29.87,SSE,162,0.0,2.0,92,0.00,,SKC,0.00,VWS V12.07,2013-09-09 06:46:00,
2013-09-09 01:53:00,73.0,70.5,29.86,South,174,2.0,2.0,92,0.00,,SKC,0.00,VWS V12.07,2013-09-09 06:53:00,
2013-09-09 01:59:00,73.1,71.0,29.86,South,180,0.0,2.0,93,0.00,,SKC,0.00,VWS V12.07,2013-09-09 06:59:00,
2013-09-09 02:06:00,72.9,70.8,29.86,South,176,0.0,0.0,93,0.00,,SKC,0.00,VWS V12.07,2013-09-09 07:06:00,
2013-09-09 02:11:00,72.8,70.7,29.86,SSE,148,0.0,2.0,93,0.00,,SKC,0.00,VWS V12.07,2013-09-09 07:11:00,
2013-09-09 02:17:00,72.7,70.6,29.86,SE,141,0.0,2.0,93,0.00,,SKC,0.00,VWS V12.07,2013-09-09 07:17:00,
2013-09-09 02:23:00,72.6,70.5,29.86,SSE,147,0.0,2.0,93,0.00,,SKC,0.00,VWS V12.07,2013-09-09 07:23:00,
2013-09-09 02:29:00,72.5,70.7,29.86,SE,146,0.0,2.0,94,0.00,,SKC,0.00,VWS V12.07,2013-09-09 07:29:00,
2013-09-09 02:35:00,72.4,70.6,29.86,SE,146,0.0,0.0,94,0.00,,SKC,0.00,VWS V12.07,2013-09-09 07:35:00,
2013-09-09 02:41:00,72.3,70.5,29.87,SSW,203,0.0,0.0,94,0.00,,SKC,0.00,VWS V12.07,2013-09-09 07:41:00,
2013-09-09 02:46:00,72.3,70.5,29.87,SSE,148,0.0,0.0,94,0.00,,SKC,0.00,VWS V12.07,2013-09-09 07:46:00,
2013-09-09 02:51:00,72.3,70.8,29.87,South,169,0.0,0.0,95,0.00,,SKC,0.00,VWS V12.07,2013-09-09 07:51:00,
2013-09-09 02:56:00,72.3,70.8,29.87,South,169,0.0,0.0,95,0.00,,SKC,0.00,VWS V12.07,2013-09-09 07:56:00,
2013-09-09 03:01:00,72.3,70.8,29.87,SSW,195,0.0,0.0,95,0.00,,SKC,0.00,VWS V12.07,2013-09-09 08:01:00,
2013-09-09 03:06:00,72.2,70.7,29.87,SW,215,0.0,1.0,95,0.00,,SKC,0.00,VWS V12.07,2013-09-09 08:06:00,
2013-09-09 03:11:00,72.2,70.7,29.87,SW,226,0.0,2.0,95,0.00,,SKC,0.00,VWS V12.07,2013-09-09 08:11:00,
2013-09-09 03:16:00,72.2,70.7,29.87,SSW,211,0.0,2.0,95,0.00,,SKC,0.00,VWS V12.07,2013-09-09 08:16:00,
2013-09-09 03:22:00,72.2,70.7,29.87,SSW,204,1.0,2.0,95,0.00,,SKC,0.00,VWS V12.07,2013-09-09 08:22:00,
2013-09-09 03:28:00,72.2,70.7,29.87,SW,218,0.0,3.0,95,0.00,,SKC,0.00,VWS V12.07,2013-09-09 08:28:00,
2013-09-09 03:33:00,72.1,70.6,29.87,SSW,213,0.0,1.0,95,0.00,,SKC,0.00,VWS V12.07,2013-09-09 08:33:00,
2013-09-09 03:39:00,72.2,70.7,29.87,SSW,210,0.0,1.0,95,0.00,,SKC,0.00,VWS V12.07,2013-09-09 08:39:00,
2013-09-09 03:45:00,72.1,70.6,29.87,SW,218,0.0,1.0,95,0.00,,SKC,0.00,VWS V12.07,2013-09-09 08:45:00,
2013-09-09 03:51:00,72.0,70.5,29.87,SSW,210,0.0,1.0,95,0.00,,SKC,0.00,VWS V12.07,2013-09-09 08:51:00,
2013-09-09 03:57:00,72.0,70.5,29.87,SSE,164,0.0,1.0,95,0.00,,SKC,0.00,VWS V12.07,2013-09-09 08:57:00,
2013-09-09 04:03:00,71.9,70.4,29.87,South,188,0.0,0.0,95,0.00,,SKC,0.00,VWS V12.07,2013-09-09 09:03:00,
2013-09-09 04:11:00,71.9,70.7,29.87,SSW,193,0.0,1.0,96,0.00,,SKC,0.00,VWS V12.07,2013-09-09 09:11:00,
2013-09-09 04:17:00,71.9,70.7,29.87,SE,145,0.0,2.0,96,0.00,,SKC,0.00,VWS V12.07,2013-09-09 09:17:00,
2013-09-09 04:23:00,71.9,70.7,29.87,South,186,1.0,2.0,96,0.00,,SKC,0.00,VWS V12.07,2013-09-09 09:23:00,
2013-09-09 04:28:00,71.9,70.7,29.87,South,189,0.0,2.0,96,0.00,,SKC,0.00,VWS V12.07,2013-09-09 09:28:00,
2013-09-09 04:34:00,71.8,70.6,29.87,SSE,158,0.0,2.0,96,0.00,,SKC,0.00,VWS V12.07,2013-09-09 09:34:00,
2013-09-09 04:39:00,71.9,70.7,29.88,South,174,0.0,2.0,96,0.00,,SKC,0.00,VWS V12.07,2013-09-09 09:39:00,
2013-09-09 04:46:00,71.8,70.6,29.88,SSW,197,0.0,2.0,96,0.00,,SKC,0.00,VWS V12.07,2013-09-09 09:46:00,
2013-09-09 04:52:00,71.8,70.6,29.87,SW,218,0.0,2.0,96,0.00,,SKC,0.00,VWS V12.07,2013-09-09 09:52:00,
2013-09-09 04:59:00,71.8,70.6,29.88,SE,141,0.0,2.0,96,0.00,,SKC,0.00,VWS V12.07,2013-09-09 09:59:00,
2013-09-09 05:05:00,71.7,70.5,29.88,SE,145,0.0,2.0,96,0.00,,SKC,0.00,VWS V12.07,2013-09-09 10:05:00,
2013-09-09 05:11:00,71.7,70.5,29.88,SSE,159,0.0,2.0,96,0.00,,SKC,0.00,VWS V12.07,2013-09-09 10:11:00,
2013-09-09 05:16:00,71.8,70.6,29.88,SW,221,0.0,2.0,96,0.00,,SKC,0.00,VWS V12.07,2013-09-09 10:16:00,
2013-09-09 05:22:00,71.8,70.6,29.88,South,171,0.0,2.0,96,0.00,,SKC,0.00,VWS V12.07,2013-09-09 10:22:00,
2013-09-09 05:28:00,71.8,70.6,29.88,WSW,242,0.0,2.0,96,0.00,,SKC,0.00,VWS V12.07,2013-09-09 10:28:00,
2013-09-09 05:34:00,71.8,70.6,29.88,SE,141,0.0,1.0,96,0.00,,SKC,0.00,VWS V12.07,2013-09-09 10:34:00,
2013-09-09 05:40:00,71.8,70.6,29.88,SE,139,0.0,1.0,96,0.00,,SKC,0.00,VWS V12.07,2013-09-09 10:40:00,
2013-09-09 05:46:00,71.8,70.6,29.88,SW,226,0.0,1.0,96,0.00,,SKC,0.00,VWS V12.07,2013-09-09 10:46:00,
2013-09-09 05:51:00,71.8,70.6,29.88,SW,235,0.0,2.0,96,0.00,,SKC,0.00,VWS V12.07,2013-09-09 10:51:00,
2013-09-09 05:56:00,71.8,70.6,29.89,SW,235,0.0,2.0,96,0.00,,SKC,0.00,VWS V12.07,2013-09-09 10:56:00,
2013-09-09 06:01:00,71.8,70.6,29.89,SE,145,0.0,2.0,96,0.00,,SKC,0.00,VWS V12.07,2013-09-09 11:01:00,
2013-09-09 06:06:00,71.7,70.5,29.89,SE,146,0.0,0.0,96,0.00,,SKC,0.00,VWS V12.07,2013-09-09 11:06:00,
2013-09-09 06:13:00,71.7,70.5,29.89,SSW,197,0.0,0.0,96,0.00,,SKC,0.00,VWS V12.07,2013-09-09 11:13:00,
2013-09-09 06:19:00,71.6,70.4,29.89,WNW,285,0.0,1.0,96,0.00,,SKC,0.00,VWS V12.07,2013-09-09 11:19:00,
2013-09-09 06:24:00,71.6,70.4,29.89,WSW,256,0.0,1.0,96,0.00,,SKC,0.00,VWS V12.07,2013-09-09 11:24:00,
2013-09-09 06:31:00,71.5,70.3,29.89,WSW,257,0.0,1.0,96,0.00,,SKC,0.00,VWS V12.07,2013-09-09 11:31:00,
2013-09-09 06:36:00,71.4,70.2,29.89,WSW,256,0.0,0.0,96,0.00,,SKC,0.00,VWS V12.07,2013-09-09 11:36:00,
2013-09-09 06:42:00,71.3,70.1,29.89,SE,140,0.0,3.0,96,0.00,,SKC,0.00,VWS V12.07,2013-09-09 11:42:00,
2013-09-09 06:49:00,71.3,70.1,29.90,SE,145,0.0,3.0,96,0.00,,SKC,0.00,VWS V12.07,2013-09-09 11:49:00,
2013-09-09 06:54:00,71.3,70.1,29.90,SW,215,0.0,3.0,96,0.00,,SKC,0.00,VWS V12.07,2013-09-09 11:54:00,
2013-09-09 07:02:00,71.4,70.2,29.90,SW,215,0.0,0.0,96,0.00,,SKC,0.00,VWS V12.07,2013-09-09 12:02:00,
2013-09-09 07:09:00,71.6,70.4,29.90,WNW,291,0.0,1.0,96,0.00,,SKC,0.00,VWS V12.07,2013-09-09 12:09:00,
2013-09-09 07:16:00,72.0,70.8,29.90,WSW,240,0.0,1.0,96,0.00,,SKC,0.00,VWS V12.07,2013-09-09 12:16:00,
2013-09-09 07:21:00,72.5,71.0,29.90,SSW,210,0.0,1.0,95,0.00,,SKC,0.00,VWS V12.07,2013-09-09 12:21:00,
2013-09-09 07:26:00,73.1,71.6,29.90,WSW,246,1.0,3.0,95,0.00,,SKC,0.00,VWS V12.07,2013-09-09 12:26:00,
2013-09-09 07:31:00,73.6,71.5,29.90,WSW,252,0.0,5.0,93,0.00,,SKC,0.00,VWS V12.07,2013-09-09 12:31:00,
2013-09-09 07:38:00,74.1,71.6,29.91,WSW,248,0.0,2.0,92,0.00,,SKC,0.00,VWS V12.07,2013-09-09 12:38:00,
2013-09-09 07:44:00,74.3,71.5,29.91,SE,139,1.0,2.0,91,0.00,,SKC,0.00,VWS V12.07,2013-09-09 12:44:00,
2013-09-09 07:51:00,74.3,71.5,29.91,ESE,120,1.0,4.0,91,0.00,,SKC,0.00,VWS V12.07,2013-09-09 12:51:00,
2013-09-09 07:57:00,74.4,71.3,29.91,NW,318,0.0,4.0,90,0.00,,SKC,0.00,VWS V12.07,2013-09-09 12:57:00,
2013-09-09 08:02:00,74.5,71.4,29.91,SSE,149,2.0,2.0,90,0.00,,SKC,0.00,VWS V12.07,2013-09-09 13:02:00,
2013-09-09 08:07:00,74.6,71.5,29.91,WSW,243,0.0,4.0,90,0.00,,SKC,0.00,VWS V12.07,2013-09-09 13:07:00,
2013-09-09 08:13:00,74.8,71.7,29.91,East,81,0.0,4.0,90,0.00,,SKC,0.00,VWS V12.07,2013-09-09 13:13:00,
2013-09-09 08:18:00,75.4,72.3,29.91,SW,226,0.0,4.0,90,0.00,,SKC,0.00,VWS V12.07,2013-09-09 13:18:00,
2013-09-09 08:24:00,76.2,72.4,29.91,SW,215,0.0,4.0,88,0.00,,SKC,0.00,VWS V12.07,2013-09-09 13:24:00,
2013-09-09 08:29:00,76.8,72.3,29.91,WNW,296,0.0,4.0,86,0.00,,SKC,0.00,VWS V12.07,2013-09-09 13:29:00,
2013-09-09 08:36:00,77.4,72.5,29.91,West,280,2.0,4.0,85,0.00,,SKC,0.00,VWS V12.07,2013-09-09 13:36:00,
2013-09-09 08:42:00,77.9,72.3,29.91,WNW,291,2.0,5.0,83,0.00,,SKC,0.00,VWS V12.07,2013-09-09 13:42:00,
2013-09-09 08:48:00,78.4,72.4,29.91,West,262,1.0,5.0,82,0.00,,SKC,0.00,VWS V12.07,2013-09-09 13:48:00,
2013-09-09 08:53:00,78.9,72.6,29.91,West,277,1.0,5.0,81,0.00,,SKC,0.00,VWS V12.07,2013-09-09 13:53:00,
2013-09-09 09:01:00,79.6,72.9,29.91,West,280,1.0,7.0,80,0.00,,SKC,0.00,VWS V12.07,2013-09-09 14:01:00,
2013-09-09 09:06:00,79.9,72.8,29.91,SW,231,0.0,4.0,79,0.00,,SKC,0.00,VWS V12.07,2013-09-09 14:06:00,
2013-09-09 09:11:00,80.4,73.3,29.91,NNE,24,1.0,4.0,79,0.00,,SKC,0.00,VWS V12.07,2013-09-09 14:11:00,
2013-09-09 09:16:00,80.6,72.7,29.91,WNW,300,0.0,7.0,77,0.00,,SKC,0.00,VWS V12.07,2013-09-09 14:16:00,
2013-09-09 09:20:00,81.1,73.6,29.91,NW,309,0.0,7.0,78,0.00,,SKC,0.00,VWS V12.07,2013-09-09 14:20:00,
2013-09-09 09:26:00,81.6,72.9,29.91,West,274,1.0,10.0,75,0.00,,SKC,0.00,VWS V12.07,2013-09-09 14:26:00,
2013-09-09 09:31:00,82.1,73.0,29.91,NNW,330,3.0,10.0,74,0.00,,SKC,0.00,VWS V12.07,2013-09-09 14:31:00,
2013-09-09 09:37:00,82.7,73.2,29.91,SSW,194,0.0,4.0,73,0.00,,SKC,0.00,VWS V12.07,2013-09-09 14:37:00,
2013-09-09 09:43:00,83.2,73.7,29.91,WNW,296,2.0,6.0,73,0.00,,SKC,0.00,VWS V12.07,2013-09-09 14:43:00,
2013-09-09 09:49:00,83.9,73.1,29.91,West,270,1.0,6.0,70,0.00,,SKC,0.00,VWS V12.07,2013-09-09 14:49:00,
2013-09-09 09:54:00,84.3,73.0,29.91,SW,228,2.0,6.0,69,0.00,,SKC,0.00,VWS V12.07,2013-09-09 14:54:00,
2013-09-09 10:00:00,84.7,72.5,29.91,West,266,3.0,6.0,67,0.00,,SKC,0.00,VWS V12.07,2013-09-09 15:00:00,
2013-09-09 10:06:00,85.3,73.1,29.91,WNW,285,2.0,5.0,67,0.00,,SKC,0.00,VWS V12.07,2013-09-09 15:06:00,
2013-09-09 10:11:00,85.9,72.8,29.91,WSW,246,2.0,5.0,65,0.00,,SKC,0.00,VWS V12.07,2013-09-09 15:11:00,
2013-09-09 10:17:00,86.7,73.1,29.91,SE,130,1.0,6.0,64,0.00,,SKC,0.00,VWS V12.07,2013-09-09 15:17:00,
2013-09-09 10:22:00,87.2,72.6,29.91,WNW,302,0.0,6.0,62,0.00,,SKC,0.00,VWS V12.07,2013-09-09 15:22:00,
2013-09-09 10:28:00,87.7,72.6,29.91,SW,214,0.0,6.0,61,0.00,,SKC,0.00,VWS V12.07,2013-09-09 15:28:00,
2013-09-09 10:34:00,88.4,73.2,29.91,WNW,284,5.0,5.0,61,0.00,,SKC,0.00,VWS V12.07,2013-09-09 15:34:00,
2013-09-09 10:39:00,88.4,72.8,29.91,East,89,0.0,7.0,60,0.00,,SKC,0.00,VWS V12.07,2013-09-09 15:39:00,
2013-09-09 10:46:00,89.2,73.5,29.91,NW,315,5.0,7.0,60,0.00,,SKC,0.00,VWS V12.07,2013-09-09 15:46:00,
2013-09-09 10:52:00,89.4,73.2,29.91,SE,130,2.0,8.0,59,0.00,,SKC,0.00,VWS V12.07,2013-09-09 15:52:00,
2013-09-09 10:58:00,89.8,73.1,29.91,West,262,4.0,8.0,58,0.00,,SKC,0.00,VWS V12.07,2013-09-09 15:58:00,
2013-09-09 11:04:00,90.3,73.0,29.91,WNW,300,3.0,7.0,57,0.00,,SKC,0.00,VWS V12.07,2013-09-09 16:04:00,
2013-09-09 11:11:00,90.3,72.5,29.91,SW,221,2.0,7.0,56,0.00,,SKC,0.00,VWS V12.07,2013-09-09 16:11:00,
2013-09-09 11:16:00,90.8,72.9,29.91,WSW,250,2.0,7.0,56,0.00,,SKC,0.00,VWS V12.07,2013-09-09 16:16:00,
2013-09-09 11:22:00,91.0,71.5,29.90,West,278,1.0,7.0,53,0.00,,SKC,0.00,VWS V12.07,2013-09-09 16:22:00,
2013-09-09 11:28:00,91.4,71.9,29.90,South,177,3.0,7.0,53,0.00,,SKC,0.00,VWS V12.07,2013-09-09 16:28:00,
2013-09-09 11:33:00,91.3,71.8,29.90,West,280,5.0,6.0,53,0.00,,SKC,0.00,VWS V12.07,2013-09-09 16:33:00,
2013-09-09 11:39:00,91.8,70.5,29.90,WNW,297,4.0,6.0,50,0.00,,SKC,0.00,VWS V12.07,2013-09-09 16:39:00,
2013-09-09 11:44:00,92.0,70.1,29.90,NW,319,2.0,6.0,49,0.00,,SKC,0.00,VWS V12.07,2013-09-09 16:44:00,
2013-09-09 11:50:00,93.0,71.0,29.90,WNW,302,2.0,6.0,49,0.00,,SKC,0.00,VWS V12.07,2013-09-09 16:50:00,
2013-09-09 11:56:00,93.4,70.8,29.90,West,281,2.0,6.0,48,0.00,,SKC,0.00,VWS V12.07,2013-09-09 16:56:00,
2013-09-09 12:01:00,93.4,70.2,29.89,SSE,167,2.0,7.0,47,0.00,,SKC,0.00,VWS V12.07,2013-09-09 17:01:00,
2013-09-09 12:07:00,94.0,70.7,29.89,West,260,1.0,9.0,47,0.00,,SKC,0.00,VWS V12.07,2013-09-09 17:07:00,
2013-09-09 12:13:00,94.3,69.1,29.89,WSW,237,3.0,12.0,44,0.00,,SKC,0.00,VWS V12.07,2013-09-09 17:13:00,
2013-09-09 12:19:00,94.4,69.8,29.89,SW,219,5.0,12.0,45,0.00,,SKC,0.00,VWS V12.07,2013-09-09 17:19:00,
2013-09-09 12:25:00,95.1,69.1,29.89,WNW,300,2.0,12.0,43,0.00,,SKC,0.00,VWS V12.07,2013-09-09 17:25:00,
2013-09-09 12:31:00,95.3,68.6,29.89,NW,309,3.0,12.0,42,0.00,,SKC,0.00,VWS V12.07,2013-09-09 17:31:00,
2013-09-09 12:37:00,95.3,68.6,29.88,WNW,302,2.0,12.0,42,0.00,,SKC,0.00,VWS V12.07,2013-09-09 17:37:00,
2013-09-09 12:43:00,95.8,67.6,29.88,SSE,160,3.0,12.0,40,0.00,,SKC,0.00,VWS V12.07,2013-09-09 17:43:00,
2013-09-09 12:49:00,96.3,68.8,29.88,West,266,1.0,12.0,41,0.00,,SKC,0.00,VWS V12.07,2013-09-09 17:49:00,
2013-09-09 12:55:00,96.6,68.3,29.88,SSW,194,2.0,12.0,40,0.00,,SKC,0.00,VWS V12.07,2013-09-09 17:55:00,
2013-09-09 13:01:00,96.4,68.2,29.88,WNW,290,5.0,12.0,40,0.00,,SKC,0.00,VWS V12.07,2013-09-09 18:01:00,
2013-09-09 13:07:00,96.6,66.8,29.88,WNW,293,2.0,11.0,38,0.00,,SKC,0.00,VWS V12.07,2013-09-09 18:07:00,
2013-09-09 13:13:00,97.4,67.6,29.88,SW,232,3.0,11.0,38,0.00,,SKC,0.00,VWS V12.07,2013-09-09 18:13:00,
2013-09-09 13:19:00,97.2,66.6,29.88,South,190,3.0,11.0,37,0.00,,SKC,0.00,VWS V12.07,2013-09-09 18:19:00,
2013-09-09 13:25:00,97.2,66.6,29.88,West,263,5.0,11.0,37,0.00,,SKC,0.00,VWS V12.07,2013-09-09 18:25:00,
2013-09-09 13:31:00,96.6,66.1,29.87,West,276,3.0,6.0,37,0.00,,SKC,0.00,VWS V12.07,2013-09-09 18:31:00,
2013-09-09 13:37:00,96.3,66.6,29.87,WNW,283,8.0,12.0,38,0.00,,SKC,0.00,VWS V12.07,2013-09-09 18:37:00,
2013-09-09 13:43:00,96.3,68.1,29.87,West,274,3.0,12.0,40,0.00,,SKC,0.00,VWS V12.07,2013-09-09 18:43:00,
2013-09-09 13:49:00,97.1,68.8,29.87,NW,309,6.0,12.0,40,0.00,,SKC,0.00,VWS V12.07,2013-09-09 18:49:00,
2013-09-09 13:55:00,97.0,67.9,29.87,WNW,287,3.0,15.0,39,0.00,,SKC,0.00,VWS V12.07,2013-09-09 18:55:00,
2013-09-09 14:01:00,96.8,67.8,29.87,WNW,285,6.0,6.0,39,0.00,,SKC,0.00,VWS V12.07,2013-09-09 19:01:00,
2013-09-09 14:07:00,96.8,67.8,29.87,WNW,302,4.0,10.0,39,0.00,,SKC,0.00,VWS V12.07,2013-09-09 19:07:00,
2013-09-09 14:13:00,97.0,67.2,29.87,NW,311,6.0,11.0,38,0.00,,SKC,0.00,VWS V12.07,2013-09-09 19:13:00,
2013-09-09 14:19:00,97.4,68.3,29.86,SW,222,2.0,11.0,39,0.00,,SKC,0.00,VWS V12.07,2013-09-09 19:19:00,
2013-09-09 14:25:00,97.5,67.6,29.86,NW,309,2.0,11.0,38,0.00,,SKC,0.00,VWS V12.07,2013-09-09 19:25:00,
2013-09-09 14:31:00,97.6,67.7,29.86,NNW,333,1.0,1.0,38,0.00,,SKC,0.00,VWS V12.07,2013-09-09 19:31:00,
2013-09-09 14:37:00,97.4,68.3,29.86,WSW,256,6.0,12.0,39,0.00,,SKC,0.00,VWS V12.07,2013-09-09 19:37:00,
2013-09-09 14:43:00,97.6,67.7,29.86,West,277,5.0,12.0,38,0.00,,SKC,0.00,VWS V12.07,2013-09-09 19:43:00,
2013-09-09 14:49:00,97.7,67.8,29.86,West,280,0.0,12.0,38,0.00,,SKC,0.00,VWS V12.07,2013-09-09 19:49:00,
2013-09-09 14:55:00,98.4,68.4,29.86,WNW,291,3.0,12.0,38,0.00,,SKC,0.00,VWS V12.07,2013-09-09 19:55:00,
2013-09-09 15:01:00,98.6,67.8,29.85,SE,141,1.0,2.0,37,0.00,,SKC,0.00,VWS V12.07,2013-09-09 20:01:00,
2013-09-09 15:07:00,99.0,67.4,29.85,WNW,288,5.0,10.0,36,0.00,,SKC,0.00,VWS V12.07,2013-09-09 20:07:00,
2013-09-09 15:13:00,98.5,67.0,29.85,West,276,2.0,12.0,36,0.00,,SKC,0.00,VWS V12.07,2013-09-09 20:13:00,
2013-09-09 15:19:00,98.4,66.9,29.85,West,281,8.0,12.0,36,0.00,,SKC,0.00,VWS V12.07,2013-09-09 20:19:00,
2013-09-09 15:25:00,98.2,68.3,29.85,NW,312,4.0,12.0,38,0.00,,SKC,0.00,VWS V12.07,2013-09-09 20:25:00,
2013-09-09 15:31:00,98.5,68.5,29.85,SW,221,1.0,1.0,38,0.00,,SKC,0.00,VWS V12.07,2013-09-09 20:31:00,
2013-09-09 15:37:00,99.2,68.4,29.85,SW,228,3.0,6.0,37,0.00,,SKC,0.00,VWS V12.07,2013-09-09 20:37:00,
2013-09-09 15:43:00,98.9,66.5,29.85,SSW,197,0.0,12.0,35,0.00,,SKC,0.00,VWS V12.07,2013-09-09 20:43:00,
2013-09-09 15:49:00,99.1,68.3,29.85,SW,232,3.0,12.0,37,0.00,,SKC,0.00,VWS V12.07,2013-09-09 20:49:00,
2013-09-09 15:55:00,99.3,67.7,29.85,SE,146,8.0,12.0,36,0.00,,SKC,0.00,VWS V12.07,2013-09-09 20:55:00,
2013-09-09 16:01:00,98.9,66.5,29.85,North,352,2.0,2.0,35,0.00,,SKC,0.00,VWS V12.07,2013-09-09 21:01:00,
2013-09-09 16:07:00,98.6,67.1,29.85,SSE,148,3.0,11.0,36,0.00,,SKC,0.00,VWS V12.07,2013-09-09 21:07:00,
2013-09-09 16:13:00,98.5,67.0,29.84,North,354,3.0,11.0,36,0.00,,SKC,0.00,VWS V12.07,2013-09-09 21:13:00,
2013-09-09 16:19:00,98.2,67.5,29.84,East,81,2.0,11.0,37,0.00,,SKC,0.00,VWS V12.07,2013-09-09 21:19:00,
2013-09-09 16:25:00,98.3,67.6,29.84,East,95,1.0,11.0,37,0.00,,SKC,0.00,VWS V12.07,2013-09-09 21:25:00,
2013-09-09 16:31:00,98.5,67.8,29.84,NW,311,5.0,5.0,37,0.00,,SKC,0.00,VWS V12.07,2013-09-09 21:31:00,
2013-09-09 16:37:00,98.2,67.5,29.84,NW,309,1.0,10.0,37,0.00,,SKC,0.00,VWS V12.07,2013-09-09 21:37:00,
2013-09-09 16:43:00,98.1,66.6,29.84,SW,231,5.0,10.0,36,0.00,,SKC,0.00,VWS V12.07,2013-09-09 21:43:00,
2013-09-09 16:49:00,98.0,67.3,29.84,NNW,341,8.0,10.0,37,0.00,,SKC,0.00,VWS V12.07,2013-09-09 21:49:00,
2013-09-09 16:55:00,97.7,66.2,29.84,WNW,294,1.0,10.0,36,0.00,,SKC,0.00,VWS V12.07,2013-09-09 21:55:00,
2013-09-09 17:01:00,97.7,67.1,29.85,SW,228,0.0,1.0,37,0.00,,SKC,0.00,VWS V12.07,2013-09-09 22:01:00,
2013-09-09 17:07:00,97.4,66.8,29.85,WNW,287,2.0,8.0,37,0.00,,SKC,0.00,VWS V12.07,2013-09-09 22:07:00,
2013-09-09 17:13:00,97.3,66.7,29.85,SE,136,1.0,8.0,37,0.00,,SKC,0.00,VWS V12.07,2013-09-09 22:13:00,
2013-09-09 17:19:00,97.2,66.6,29.85,East,98,2.0,8.0,37,0.00,,SKC,0.00,VWS V12.07,2013-09-09 22:19:00,
2013-09-09 17:25:00,96.8,66.2,29.85,WNW,294,0.0,9.0,37,0.00,,SKC,0.00,VWS V12.07,2013-09-09 22:25:00,
2013-09-09 17:31:00,96.9,67.1,29.85,West,264,1.0,2.0,38,0.00,,SKC,0.00,VWS V12.07,2013-09-09 22:31:00,
2013-09-09 17:37:00,96.9,67.1,29.85,WNW,291,3.0,6.0,38,0.00,,SKC,0.00,VWS V12.07,2013-09-09 22:37:00,
2013-09-09 17:43:00,96.4,66.7,29.85,WNW,302,0.0,9.0,38,0.00,,SKC,0.00,VWS V12.07,2013-09-09 22:43:00,
2013-09-09 17:49:00,96.2,66.5,29.85,North,356,3.0,9.0,38,0.00,,SKC,0.00,VWS V12.07,2013-09-09 22:49:00,
2013-09-09 17:55:00,95.9,67.0,29.86,NW,323,3.0,10.0,39,0.00,,SKC,0.00,VWS V12.07,2013-09-09 22:55:00,
2013-09-09 18:01:00,95.7,66.8,29.86,WNW,297,1.0,5.0,39,0.00,,SKC,0.00,VWS V12.07,2013-09-09 23:01:00,
2013-09-09 18:07:00,95.5,67.4,29.86,West,259,0.0,7.0,40,0.00,,SKC,0.00,VWS V12.07,2013-09-09 23:07:00,
2013-09-09 18:13:00,95.4,67.3,29.86,SW,217,2.0,7.0,40,0.00,,SKC,0.00,VWS V12.07,2013-09-09 23:13:00,
2013-09-09 18:19:00,95.0,66.9,29.86,SSW,211,1.0,7.0,40,0.00,,SKC,0.00,VWS V12.07,2013-09-09 23:19:00,
2013-09-09 18:25:00,95.0,67.6,29.86,WSW,243,2.0,7.0,41,0.00,,SKC,0.00,VWS V12.07,2013-09-09 23:25:00,
2013-09-09 18:31:00,94.8,67.4,29.86,NW,308,0.0,0.0,41,0.00,,SKC,0.00,VWS V12.07,2013-09-09 23:31:00,
2013-09-09 18:37:00,94.6,67.3,29.86,WSW,243,0.0,3.0,41,0.00,,SKC,0.00,VWS V12.07,2013-09-09 23:37:00,
2013-09-09 18:43:00,94.2,67.6,29.86,WSW,257,0.0,3.0,42,0.00,,SKC,0.00,VWS V12.07,2013-09-09 23:43:00,
2013-09-09 18:49:00,93.4,68.2,29.86,SE,141,1.0,3.0,44,0.00,,SKC,0.00,VWS V12.07,2013-09-09 23:49:00,
2013-09-09 18:55:00,92.5,68.1,29.86,West,281,0.0,3.0,45,0.00,,SKC,0.00,VWS V12.07,2013-09-09 23:55:00,
2013-09-09 19:01:00,91.5,67.8,29.86,WNW,302,0.0,0.0,46,0.00,,SKC,0.00,VWS V12.07,2013-09-10 00:01:00,
2013-09-09 19:07:00,90.7,67.7,29.87,WNW,282,0.0,1.0,47,0.00,,SKC,0.00,VWS V12.07,2013-09-10 00:07:00,
2013-09-09 19:13:00,89.9,67.6,29.87,SSW,210,0.0,1.0,48,0.00,,SKC,0.00,VWS V12.07,2013-09-10 00:13:00,
2013-09-09 19:19:00,89.0,67.4,29.87,SW,219,0.0,1.0,49,0.00,,SKC,0.00,VWS V12.07,2013-09-10 00:19:00,
2013-09-09 19:25:00,88.2,67.2,29.87,SW,218,0.0,1.0,50,0.00,,SKC,0.00,VWS V12.07,2013-09-10 00:25:00,
2013-09-09 19:31:00,87.4,67.1,29.87,SSE,156,0.0,0.0,51,0.00,,SKC,0.00,VWS V12.07,2013-09-10 00:31:00,
2013-09-09 19:37:00,86.6,66.9,29.87,SE,132,0.0,1.0,52,0.00,,SKC,0.00,VWS V12.07,2013-09-10 00:37:00,
2013-09-09 19:43:00,86.1,66.4,29.87,SW,215,0.0,2.0,52,0.00,,SKC,0.00,VWS V12.07,2013-09-10 00:43:00,
2013-09-09 19:49:00,85.6,66.5,29.88,SW,215,0.0,2.0,53,0.00,,SKC,0.00,VWS V12.07,2013-09-10 00:49:00,
2013-09-09 19:55:00,85.1,66.1,29.88,SSE,168,0.0,2.0,53,0.00,,SKC,0.00,VWS V12.07,2013-09-10 00:55:00,
2013-09-09 20:01:00,84.7,66.2,29.88,SSE,167,0.0,0.0,54,0.00,,SKC,0.00,VWS V12.07,2013-09-10 01:01:00,
2013-09-09 20:07:00,84.1,66.2,29.89,SSE,167,0.0,0.0,55,0.00,,SKC,0.00,VWS V12.07,2013-09-10 01:07:00,
2013-09-09 20:13:00,83.3,66.0,29.89,SSE,167,0.0,0.0,56,0.00,,SKC,0.00,VWS V12.07,2013-09-10 01:13:00,
2013-09-09 20:19:00,83.0,66.2,29.89,SE,133,1.0,1.0,57,0.00,,SKC,0.00,VWS V12.07,2013-09-10 01:19:00,
2013-09-09 20:25:00,82.9,66.1,29.89,West,267,0.0,2.0,57,0.00,,SKC,0.00,VWS V12.07,2013-09-10 01:25:00,
2013-09-09 20:32:00,82.5,66.2,29.89,SSW,203,0.0,0.0,58,0.00,,SKC,0.00,VWS V12.07,2013-09-10 01:32:00,
2013-09-09 20:39:00,82.0,66.3,29.89,SSW,201,0.0,0.0,59,0.00,,SKC,0.00,VWS V12.07,2013-09-10 01:39:00,
2013-09-09 20:45:00,81.6,66.4,29.89,SSW,201,0.0,0.0,60,0.00,,SKC,0.00,VWS V12.07,2013-09-10 01:45:00,
2013-09-09 20:51:00,81.4,66.2,29.89,SSW,201,0.0,0.0,60,0.00,,SKC,0.00,VWS V12.07,2013-09-10 01:51:00,
2013-09-09 20:57:00,81.1,66.4,29.89,SSW,201,0.0,0.0,61,0.00,,SKC,0.00,VWS V12.07,2013-09-10 01:57:00,
2013-09-09 21:03:00,80.6,66.4,29.90,SSW,201,0.0,0.0,62,0.00,,SKC,0.00,VWS V12.07,2013-09-10 02:03:00,
2013-09-09 21:09:00,80.2,66.5,29.90,SSW,201,0.0,0.0,63,0.00,,SKC,0.00,VWS V12.07,2013-09-10 02:09:00,
2013-09-09 21:15:00,79.6,65.9,29.90,SSW,201,0.0,0.0,63,0.00,,SKC,0.00,VWS V12.07,2013-09-10 02:15:00,
2013-09-09 21:21:00,79.0,66.2,29.90,SSW,201,0.0,0.0,65,0.00,,SKC,0.00,VWS V12.07,2013-09-10 02:21:00,
2013-09-09 21:27:00,78.8,66.1,29.91,SSW,201,0.0,0.0,65,0.00,,SKC,0.00,VWS V12.07,2013-09-10 02:27:00,
2013-09-09 21:33:00,78.7,66.4,29.91,SSW,201,0.0,0.0,66,0.00,,SKC,0.00,VWS V12.07,2013-09-10 02:33:00,
2013-09-09 21:39:00,78.4,66.1,29.91,SSW,201,0.0,0.0,66,0.00,,SKC,0.00,VWS V12.07,2013-09-10 02:39:00,
2013-09-09 21:45:00,78.4,66.1,29.91,SSW,201,0.0,0.0,66,0.00,,SKC,0.00,VWS V12.07,2013-09-10 02:45:00,
2013-09-09 21:52:00,78.3,66.0,29.91,SSW,201,0.0,0.0,66,0.00,,SKC,0.00,VWS V12.07,2013-09-10 02:52:00,
2013-09-09 21:58:00,78.2,66.4,29.91,SSW,201,0.0,0.0,67,0.00,,SKC,0.00,VWS V12.07,2013-09-10 02:58:00,
2013-09-09 22:04:00,78.3,66.4,29.91,SSW,201,0.0,0.0,67,0.00,,SKC,0.00,VWS V12.07,2013-09-10 03:04:00,
2013-09-09 22:10:00,78.3,66.4,29.91,WNW,302,0.0,3.0,67,0.00,,SKC,0.00,VWS V12.07,2013-09-10 03:10:00,
2013-09-09 22:16:00,78.6,66.7,29.91,SSW,204,0.0,4.0,67,0.00,,SKC,0.00,VWS V12.07,2013-09-10 03:16:00,
2013-09-09 22:22:00,78.8,66.5,29.92,SSE,156,0.0,4.0,66,0.00,,SKC,0.00,VWS V12.07,2013-09-10 03:22:00,
2013-09-09 22:28:00,78.9,66.6,29.92,SSW,201,0.0,4.0,66,0.00,,SKC,0.00,VWS V12.07,2013-09-10 03:28:00,
2013-09-09 22:34:00,78.9,66.6,29.92,SSW,204,0.0,0.0,66,0.00,,SKC,0.00,VWS V12.07,2013-09-10 03:34:00,
2013-09-09 22:40:00,78.7,66.4,29.92,SSW,203,0.0,0.0,66,0.00,,SKC,0.00,VWS V12.07,2013-09-10 03:40:00,
2013-09-09 22:46:00,78.6,66.7,29.92,East,94,0.0,1.0,67,0.00,,SKC,0.00,VWS V12.07,2013-09-10 03:46:00,
2013-09-09 22:52:00,78.4,66.6,29.93,SSE,153,0.0,1.0,67,0.00,,SKC,0.00,VWS V12.07,2013-09-10 03:52:00,
2013-09-09 22:58:00,78.0,66.2,29.93,SSE,154,0.0,1.0,67,0.00,,SKC,0.00,VWS V12.07,2013-09-10 03:58:00,
2013-09-09 23:01:00,77.9,66.5,29.93,WSW,240,0.0,0.0,68,0.00,,SKC,0.00,VWS V12.07,2013-09-10 04:01:00,
2013-09-09 23:04:00,77.8,66.4,29.93,WSW,239,0.0,0.0,68,0.00,,SKC,0.00,VWS V12.07,2013-09-10 04:04:00,
2013-09-09 23:10:00,77.7,66.3,29.93,WSW,240,0.0,0.0,68,0.00,,SKC,0.00,VWS V12.07,2013-09-10 04:10:00,
2013-09-09 23:16:00,77.5,66.1,29.93,SW,235,0.0,1.0,68,0.00,,SKC,0.00,VWS V12.07,2013-09-10 04:16:00,
2013-09-09 23:22:00,77.4,66.0,29.93,SW,235,0.0,1.0,68,0.00,,SKC,0.00,VWS V12.07,2013-09-10 04:22:00,
2013-09-09 23:28:00,77.0,66.1,29.93,SW,235,0.0,1.0,69,0.00,,SKC,0.00,VWS V12.07,2013-09-10 04:28:00,
2013-09-09 23:34:00,76.6,65.7,29.93,SW,235,0.0,0.0,69,0.00,,SKC,0.00,VWS V12.07,2013-09-10 04:34:00,
2013-09-09 23:40:00,76.4,65.5,29.93,WSW,252,0.0,1.0,69,0.00,,SKC,0.00,VWS V12.07,2013-09-10 04:40:00,
2013-09-09 23:46:00,76.4,65.5,29.93,WSW,249,0.0,1.0,69,0.00,,SKC,0.00,VWS V12.07,2013-09-10 04:46:00,
2013-09-09 23:52:00,76.4,65.9,29.93,WSW,246,0.0,2.0,70,0.00,,SKC,0.00,VWS V12.07,2013-09-10 04:52:00,
2013-09-09 23:58:00,76.4,65.5,29.93,WSW,252,0.0,2.0,69,0.00,,SKC,0.00,VWS V12.07,2013-09-10 04:58:00,